sensor_id;sensor_type;location;lat;lon;timestamp;P1;durP1;ratioP1;P2;durP2;ratioP2
78322;SDS011;67583;50.616;-3.404;2024-01-27T00:02:42;16.17;;;7.30;;
78322;SDS011;67583;50.616;-3.404;2024-01-27T00:05:08;20.88;;;7.72;;
78322;SDS011;67583;50.616;-3.404;2024-01-27T00:07:34;16.77;;;6.40;;
78322;SDS011;67583;50.616;-3.404;2024-01-27T00:09:59;26.02;;;11.80;;
78322;SDS011;67583;50.616;-3.404;2024-01-27T00:12:25;16.27;;;7.43;;
78322;SDS011;67583;50.616;-3.404;2024-01-27T00:14:51;22.20;;;7.78;;
78322;SDS011;67583;50.616;-3.404;2024-01-27T00:17:16;18.42;;;7.90;;
78322;SDS011;67583;50.616;-3.404;2024-01-27T00:19:41;16.13;;;4.95;;
78322;SDS011;67583;50.616;-3.404;2024-01-27T00:22:07;12.30;;;4.10;;
78322;SDS011;67583;50.616;-3.404;2024-01-27T00:24:33;7.50;;;3.17;;
78322;SDS011;67583;50.616;-3.404;2024-01-27T00:26:59;13.25;;;3.35;;
78322;SDS011;67583;50.616;-3.404;2024-01-27T00:29:25;9.52;;;3.40;;
78322;SDS011;67583;50.616;-3.404;2024-01-27T00:31:50;12.77;;;3.38;;
78322;SDS011;67583;50.616;-3.404;2024-01-27T00:34:16;6.35;;;3.20;;
78322;SDS011;67583;50.616;-3.404;2024-01-27T00:36:41;6.72;;;2.97;;
78322;SDS011;67583;50.616;-3.404;2024-01-27T00:39:13;10.15;;;3.10;;
78322;SDS011;67583;50.616;-3.404;2024-01-27T00:41:39;10.93;;;3.85;;
78322;SDS011;67583;50.616;-3.404;2024-01-27T00:44:05;9.23;;;3.00;;
78322;SDS011;67583;50.616;-3.404;2024-01-27T00:46:30;6.78;;;2.80;;
78322;SDS011;67583;50.616;-3.404;2024-01-27T00:48:55;9.18;;;3.25;;
78322;SDS011;67583;50.616;-3.404;2024-01-27T00:51:21;8.38;;;3.15;;
78322;SDS011;67583;50.616;-3.404;2024-01-27T00:53:46;5.85;;;3.10;;
78322;SDS011;67583;50.616;-3.404;2024-01-27T00:56:12;10.85;;;3.05;;
78322;SDS011;67583;50.616;-3.404;2024-01-27T00:58:37;8.88;;;3.90;;
78322;SDS011;67583;50.616;-3.404;2024-01-27T01:01:02;8.77;;;3.10;;
78322;SDS011;67583;50.616;-3.404;2024-01-27T01:03:28;11.38;;;3.97;;
78322;SDS011;67583;50.616;-3.404;2024-01-27T01:05:53;6.55;;;3.28;;
78322;SDS011;67583;50.616;-3.404;2024-01-27T01:08:19;10.02;;;3.42;;
78322;SDS011;67583;50.616;-3.404;2024-01-27T01:10:44;9.23;;;3.45;;
78322;SDS011;67583;50.616;-3.404;2024-01-27T01:13:10;11.32;;;4.43;;
78322;SDS011;67583;50.616;-3.404;2024-01-27T01:15:36;9.90;;;3.63;;
78322;SDS011;67583;50.616;-3.404;2024-01-27T01:18:02;10.50;;;3.33;;
78322;SDS011;67583;50.616;-3.404;2024-01-27T01:20:27;9.05;;;4.68;;
78322;SDS011;67583;50.616;-3.404;2024-01-27T01:22:53;11.80;;;4.90;;
78322;SDS011;67583;50.616;-3.404;2024-01-27T01:25:18;10.98;;;4.75;;
78322;SDS011;67583;50.616;-3.404;2024-01-27T01:27:44;13.93;;;4.20;;
78322;SDS011;67583;50.616;-3.404;2024-01-27T01:30:10;10.20;;;4.50;;
78322;SDS011;67583;50.616;-3.404;2024-01-27T01:32:36;8.93;;;3.50;;
78322;SDS011;67583;50.616;-3.404;2024-01-27T01:35:01;9.20;;;3.55;;
78322;SDS011;67583;50.616;-3.404;2024-01-27T01:37:27;5.47;;;3.28;;
78322;SDS011;67583;50.616;-3.404;2024-01-27T01:39:52;12.73;;;4.20;;
78322;SDS011;67583;50.616;-3.404;2024-01-27T01:42:17;7.13;;;3.13;;
78322;SDS011;67583;50.616;-3.404;2024-01-27T01:44:45;9.40;;;3.67;;
78322;SDS011;67583;50.616;-3.404;2024-01-27T01:47:10;11.00;;;5.93;;
78322;SDS011;67583;50.616;-3.404;2024-01-27T01:49:37;8.13;;;4.28;;
78322;SDS011;67583;50.616;-3.404;2024-01-27T01:52:03;11.40;;;4.30;;
78322;SDS011;67583;50.616;-3.404;2024-01-27T01:54:29;11.95;;;4.60;;
78322;SDS011;67583;50.616;-3.404;2024-01-27T01:56:55;9.65;;;3.80;;
78322;SDS011;67583;50.616;-3.404;2024-01-27T01:59:21;9.85;;;3.70;;
78322;SDS011;67583;50.616;-3.404;2024-01-27T02:01:46;8.65;;;3.20;;
78322;SDS011;67583;50.616;-3.404;2024-01-27T02:04:11;10.43;;;5.18;;
78322;SDS011;67583;50.616;-3.404;2024-01-27T02:06:37;10.45;;;3.72;;
78322;SDS011;67583;50.616;-3.404;2024-01-27T02:09:03;9.13;;;3.72;;
78322;SDS011;67583;50.616;-3.404;2024-01-27T02:11:28;6.32;;;3.72;;
78322;SDS011;67583;50.616;-3.404;2024-01-27T02:13:53;8.70;;;3.17;;
78322;SDS011;67583;50.616;-3.404;2024-01-27T02:16:19;8.52;;;3.33;;
78322;SDS011;67583;50.616;-3.404;2024-01-27T02:18:45;8.25;;;3.15;;
78322;SDS011;67583;50.616;-3.404;2024-01-27T02:21:10;6.15;;;2.70;;
78322;SDS011;67583;50.616;-3.404;2024-01-27T02:23:35;8.38;;;3.15;;
78322;SDS011;67583;50.616;-3.404;2024-01-27T02:26:01;5.15;;;2.35;;
78322;SDS011;67583;50.616;-3.404;2024-01-27T02:28:27;9.23;;;3.90;;
78322;SDS011;67583;50.616;-3.404;2024-01-27T02:30:52;7.55;;;3.80;;
78322;SDS011;67583;50.616;-3.404;2024-01-27T02:33:18;10.10;;;3.38;;
78322;SDS011;67583;50.616;-3.404;2024-01-27T02:35:43;6.63;;;3.80;;
78322;SDS011;67583;50.616;-3.404;2024-01-27T02:38:09;12.75;;;3.63;;
78322;SDS011;67583;50.616;-3.404;2024-01-27T02:40:34;8.88;;;3.03;;
78322;SDS011;67583;50.616;-3.404;2024-01-27T02:43:00;8.95;;;3.05;;
78322;SDS011;67583;50.616;-3.404;2024-01-27T02:45:25;6.00;;;3.03;;
78322;SDS011;67583;50.616;-3.404;2024-01-27T02:47:51;9.40;;;3.53;;
78322;SDS011;67583;50.616;-3.404;2024-01-27T02:50:16;8.10;;;2.65;;
78322;SDS011;67583;50.616;-3.404;2024-01-27T02:52:41;8.18;;;3.22;;
78322;SDS011;67583;50.616;-3.404;2024-01-27T02:55:07;7.60;;;3.00;;
78322;SDS011;67583;50.616;-3.404;2024-01-27T02:57:33;7.53;;;2.85;;
78322;SDS011;67583;50.616;-3.404;2024-01-27T02:59:58;5.03;;;2.88;;
78322;SDS011;67583;50.616;-3.404;2024-01-27T03:02:23;8.13;;;3.55;;
78322;SDS011;67583;50.616;-3.404;2024-01-27T03:04:49;9.00;;;3.15;;
78322;SDS011;67583;50.616;-3.404;2024-01-27T03:07:14;7.25;;;3.15;;
78322;SDS011;67583;50.616;-3.404;2024-01-27T03:09:40;8.85;;;3.13;;
78322;SDS011;67583;50.616;-3.404;2024-01-27T03:12:05;10.00;;;2.83;;
78322;SDS011;67583;50.616;-3.404;2024-01-27T03:14:31;6.60;;;2.92;;
78322;SDS011;67583;50.616;-3.404;2024-01-27T03:16:56;8.10;;;3.03;;
78322;SDS011;67583;50.616;-3.404;2024-01-27T03:19:23;7.97;;;3.33;;
78322;SDS011;67583;50.616;-3.404;2024-01-27T03:21:48;9.90;;;3.08;;
78322;SDS011;67583;50.616;-3.404;2024-01-27T03:24:14;9.13;;;3.53;;
78322;SDS011;67583;50.616;-3.404;2024-01-27T03:26:39;6.63;;;3.10;;
78322;SDS011;67583;50.616;-3.404;2024-01-27T03:29:05;7.25;;;3.53;;
78322;SDS011;67583;50.616;-3.404;2024-01-27T03:31:31;10.73;;;4.03;;
78322;SDS011;67583;50.616;-3.404;2024-01-27T03:33:58;9.77;;;4.00;;
78322;SDS011;67583;50.616;-3.404;2024-01-27T03:36:24;10.90;;;4.65;;
78322;SDS011;67583;50.616;-3.404;2024-01-27T03:38:49;11.70;;;5.00;;
78322;SDS011;67583;50.616;-3.404;2024-01-27T03:41:15;9.90;;;5.00;;
78322;SDS011;67583;50.616;-3.404;2024-01-27T03:43:41;9.40;;;5.28;;
78322;SDS011;67583;50.616;-3.404;2024-01-27T03:46:06;13.52;;;5.63;;
78322;SDS011;67583;50.616;-3.404;2024-01-27T03:48:32;14.48;;;6.80;;
78322;SDS011;67583;50.616;-3.404;2024-01-27T03:50:57;18.50;;;6.93;;
78322;SDS011;67583;50.616;-3.404;2024-01-27T03:53:22;9.95;;;6.53;;
78322;SDS011;67583;50.616;-3.404;2024-01-27T03:55:48;12.07;;;6.65;;
78322;SDS011;67583;50.616;-3.404;2024-01-27T03:58:13;11.55;;;6.30;;
78322;SDS011;67583;50.616;-3.404;2024-01-27T04:00:38;11.43;;;6.45;;
78322;SDS011;67583;50.616;-3.404;2024-01-27T04:03:04;12.55;;;5.70;;
78322;SDS011;67583;50.616;-3.404;2024-01-27T04:05:29;10.15;;;5.35;;
78322;SDS011;67583;50.616;-3.404;2024-01-27T04:07:56;12.43;;;6.15;;
78322;SDS011;67583;50.616;-3.404;2024-01-27T04:10:21;14.13;;;5.70;;
78322;SDS011;67583;50.616;-3.404;2024-01-27T04:12:47;10.57;;;5.47;;
78322;SDS011;67583;50.616;-3.404;2024-01-27T04:15:13;10.05;;;4.63;;
78322;SDS011;67583;50.616;-3.404;2024-01-27T04:17:39;11.82;;;5.88;;
78322;SDS011;67583;50.616;-3.404;2024-01-27T04:20:06;12.73;;;5.45;;
78322;SDS011;67583;50.616;-3.404;2024-01-27T04:22:35;10.65;;;4.72;;
78322;SDS011;67583;50.616;-3.404;2024-01-27T04:25:01;12.07;;;4.97;;
78322;SDS011;67583;50.616;-3.404;2024-01-27T04:27:28;10.68;;;3.45;;
78322;SDS011;67583;50.616;-3.404;2024-01-27T04:29:54;7.85;;;4.28;;
78322;SDS011;67583;50.616;-3.404;2024-01-27T04:32:19;9.90;;;3.83;;
78322;SDS011;67583;50.616;-3.404;2024-01-27T04:34:46;9.63;;;4.20;;
78322;SDS011;67583;50.616;-3.404;2024-01-27T04:37:12;8.85;;;4.43;;
78322;SDS011;67583;50.616;-3.404;2024-01-27T04:39:37;9.48;;;4.20;;
78322;SDS011;67583;50.616;-3.404;2024-01-27T04:42:03;9.07;;;3.92;;
78322;SDS011;67583;50.616;-3.404;2024-01-27T04:44:31;8.00;;;4.60;;
78322;SDS011;67583;50.616;-3.404;2024-01-27T04:46:56;9.68;;;3.88;;
78322;SDS011;67583;50.616;-3.404;2024-01-27T04:49:22;11.32;;;4.60;;
78322;SDS011;67583;50.616;-3.404;2024-01-27T04:51:47;11.10;;;4.30;;
78322;SDS011;67583;50.616;-3.404;2024-01-27T04:54:13;11.93;;;3.67;;
78322;SDS011;67583;50.616;-3.404;2024-01-27T04:56:38;13.88;;;4.53;;
78322;SDS011;67583;50.616;-3.404;2024-01-27T04:59:03;12.30;;;5.38;;
78322;SDS011;67583;50.616;-3.404;2024-01-27T05:01:29;9.73;;;4.50;;
78322;SDS011;67583;50.616;-3.404;2024-01-27T05:03:54;13.38;;;4.75;;
78322;SDS011;67583;50.616;-3.404;2024-01-27T05:06:20;10.30;;;4.72;;
78322;SDS011;67583;50.616;-3.404;2024-01-27T05:08:45;10.73;;;4.35;;
78322;SDS011;67583;50.616;-3.404;2024-01-27T05:11:10;13.25;;;5.68;;
78322;SDS011;67583;50.616;-3.404;2024-01-27T05:13:36;9.57;;;4.35;;
78322;SDS011;67583;50.616;-3.404;2024-01-27T05:16:03;12.07;;;5.15;;
78322;SDS011;67583;50.616;-3.404;2024-01-27T05:18:29;7.43;;;3.83;;
78322;SDS011;67583;50.616;-3.404;2024-01-27T05:20:55;8.82;;;3.63;;
78322;SDS011;67583;50.616;-3.404;2024-01-27T05:23:20;9.25;;;4.00;;
78322;SDS011;67583;50.616;-3.404;2024-01-27T05:25:45;11.55;;;4.38;;
78322;SDS011;67583;50.616;-3.404;2024-01-27T05:28:11;9.98;;;4.53;;
78322;SDS011;67583;50.616;-3.404;2024-01-27T05:30:36;10.73;;;4.75;;
78322;SDS011;67583;50.616;-3.404;2024-01-27T05:35:27;9.48;;;4.57;;
78322;SDS011;67583;50.616;-3.404;2024-01-27T05:37:52;8.38;;;4.95;;
78322;SDS011;67583;50.616;-3.404;2024-01-27T05:40:19;14.73;;;5.22;;
78322;SDS011;67583;50.616;-3.404;2024-01-27T05:42:44;13.52;;;5.57;;
78322;SDS011;67583;50.616;-3.404;2024-01-27T05:47:36;11.23;;;4.82;;
78322;SDS011;67583;50.616;-3.404;2024-01-27T05:50:01;12.77;;;6.40;;
78322;SDS011;67583;50.616;-3.404;2024-01-27T05:52:27;9.13;;;6.45;;
78322;SDS011;67583;50.616;-3.404;2024-01-27T05:54:53;16.25;;;6.25;;
78322;SDS011;67583;50.616;-3.404;2024-01-27T05:57:18;11.77;;;7.30;;
78322;SDS011;67583;50.616;-3.404;2024-01-27T05:59:44;14.75;;;7.72;;
78322;SDS011;67583;50.616;-3.404;2024-01-27T06:02:10;12.40;;;6.88;;
78322;SDS011;67583;50.616;-3.404;2024-01-27T06:04:35;15.80;;;8.05;;
78322;SDS011;67583;50.616;-3.404;2024-01-27T06:07:00;18.73;;;7.68;;
78322;SDS011;67583;50.616;-3.404;2024-01-27T06:11:51;12.87;;;6.53;;
78322;SDS011;67583;50.616;-3.404;2024-01-27T06:14:16;17.65;;;8.77;;
78322;SDS011;67583;50.616;-3.404;2024-01-27T06:16:42;21.02;;;8.40;;
78322;SDS011;67583;50.616;-3.404;2024-01-27T06:19:07;13.55;;;8.20;;
78322;SDS011;67583;50.616;-3.404;2024-01-27T06:21:34;14.18;;;7.80;;
78322;SDS011;67583;50.616;-3.404;2024-01-27T06:24:00;11.75;;;6.32;;
78322;SDS011;67583;50.616;-3.404;2024-01-27T06:26:25;13.68;;;7.47;;
78322;SDS011;67583;50.616;-3.404;2024-01-27T06:28:51;16.58;;;6.57;;
78322;SDS011;67583;50.616;-3.404;2024-01-27T06:31:16;8.90;;;5.63;;
78322;SDS011;67583;50.616;-3.404;2024-01-27T06:33:42;12.82;;;7.18;;
78322;SDS011;67583;50.616;-3.404;2024-01-27T06:36:08;17.85;;;6.95;;
78322;SDS011;67583;50.616;-3.404;2024-01-27T06:38:34;15.13;;;7.85;;
78322;SDS011;67583;50.616;-3.404;2024-01-27T06:41:00;16.90;;;6.90;;
78322;SDS011;67583;50.616;-3.404;2024-01-27T06:43:26;17.02;;;6.93;;
78322;SDS011;67583;50.616;-3.404;2024-01-27T06:45:51;14.45;;;6.38;;
78322;SDS011;67583;50.616;-3.404;2024-01-27T06:48:16;11.20;;;5.50;;
78322;SDS011;67583;50.616;-3.404;2024-01-27T06:50:42;19.15;;;7.13;;
78322;SDS011;67583;50.616;-3.404;2024-01-27T06:53:07;17.58;;;6.80;;
78322;SDS011;67583;50.616;-3.404;2024-01-27T06:55:35;13.25;;;6.13;;
78322;SDS011;67583;50.616;-3.404;2024-01-27T06:58:02;15.98;;;6.90;;
78322;SDS011;67583;50.616;-3.404;2024-01-27T07:02:52;12.88;;;5.63;;
78322;SDS011;67583;50.616;-3.404;2024-01-27T07:05:19;11.43;;;6.60;;
78322;SDS011;67583;50.616;-3.404;2024-01-27T07:10:10;12.43;;;5.20;;
78322;SDS011;67583;50.616;-3.404;2024-01-27T07:12:35;7.88;;;4.95;;
78322;SDS011;67583;50.616;-3.404;2024-01-27T07:15:01;14.88;;;5.60;;
78322;SDS011;67583;50.616;-3.404;2024-01-27T07:17:27;11.32;;;6.43;;
78322;SDS011;67583;50.616;-3.404;2024-01-27T07:22:18;14.77;;;6.50;;
78322;SDS011;67583;50.616;-3.404;2024-01-27T07:24:44;10.25;;;5.55;;
78322;SDS011;67583;50.616;-3.404;2024-01-27T07:27:11;17.67;;;8.48;;
78322;SDS011;67583;50.616;-3.404;2024-01-27T07:29:37;11.15;;;5.75;;
78322;SDS011;67583;50.616;-3.404;2024-01-27T07:32:03;11.57;;;6.18;;
78322;SDS011;67583;50.616;-3.404;2024-01-27T07:34:28;10.10;;;6.47;;
78322;SDS011;67583;50.616;-3.404;2024-01-27T07:39:19;27.88;;;12.27;;
78322;SDS011;67583;50.616;-3.404;2024-01-27T07:41:45;15.68;;;8.20;;
78322;SDS011;67583;50.616;-3.404;2024-01-27T07:44:11;17.67;;;9.75;;
78322;SDS011;67583;50.616;-3.404;2024-01-27T07:46:38;14.35;;;7.93;;
78322;SDS011;67583;50.616;-3.404;2024-01-27T07:49:05;12.05;;;6.90;;
78322;SDS011;67583;50.616;-3.404;2024-01-27T07:51:31;9.38;;;6.20;;
78322;SDS011;67583;50.616;-3.404;2024-01-27T07:53:57;15.05;;;7.45;;
78322;SDS011;67583;50.616;-3.404;2024-01-27T07:56:23;13.63;;;6.45;;
78322;SDS011;67583;50.616;-3.404;2024-01-27T07:58:48;19.05;;;7.75;;
78322;SDS011;67583;50.616;-3.404;2024-01-27T08:01:17;11.85;;;5.82;;
78322;SDS011;67583;50.616;-3.404;2024-01-27T08:03:43;14.27;;;6.55;;
78322;SDS011;67583;50.616;-3.404;2024-01-27T08:06:15;12.85;;;6.20;;
78322;SDS011;67583;50.616;-3.404;2024-01-27T08:08:45;14.55;;;8.35;;
78322;SDS011;67583;50.616;-3.404;2024-01-27T08:11:12;18.83;;;8.60;;
78322;SDS011;67583;50.616;-3.404;2024-01-27T08:13:41;13.85;;;7.55;;
78322;SDS011;67583;50.616;-3.404;2024-01-27T08:16:07;15.80;;;7.15;;
78322;SDS011;67583;50.616;-3.404;2024-01-27T08:18:35;19.40;;;9.82;;
78322;SDS011;67583;50.616;-3.404;2024-01-27T08:21:01;19.23;;;11.30;;
78322;SDS011;67583;50.616;-3.404;2024-01-27T08:25:52;16.13;;;9.10;;
78322;SDS011;67583;50.616;-3.404;2024-01-27T08:28:18;17.73;;;9.05;;
78322;SDS011;67583;50.616;-3.404;2024-01-27T08:30:43;20.92;;;10.43;;
78322;SDS011;67583;50.616;-3.404;2024-01-27T08:33:09;16.50;;;11.60;;
78322;SDS011;67583;50.616;-3.404;2024-01-27T08:35:35;16.45;;;10.60;;
78322;SDS011;67583;50.616;-3.404;2024-01-27T08:40:25;23.42;;;10.90;;
78322;SDS011;67583;50.616;-3.404;2024-01-27T08:42:51;15.43;;;10.88;;
78322;SDS011;67583;50.616;-3.404;2024-01-27T08:45:16;20.30;;;10.50;;
78322;SDS011;67583;50.616;-3.404;2024-01-27T08:47:42;16.08;;;9.32;;
78322;SDS011;67583;50.616;-3.404;2024-01-27T08:50:08;18.35;;;9.85;;
78322;SDS011;67583;50.616;-3.404;2024-01-27T08:52:34;15.82;;;9.30;;
78322;SDS011;67583;50.616;-3.404;2024-01-27T08:57:25;13.30;;;8.10;;
78322;SDS011;67583;50.616;-3.404;2024-01-27T09:02:16;19.17;;;9.07;;
78322;SDS011;67583;50.616;-3.404;2024-01-27T09:04:41;18.58;;;9.18;;
78322;SDS011;67583;50.616;-3.404;2024-01-27T09:09:32;13.55;;;8.45;;
78322;SDS011;67583;50.616;-3.404;2024-01-27T09:14:23;14.47;;;8.53;;
78322;SDS011;67583;50.616;-3.404;2024-01-27T09:16:49;14.65;;;8.38;;
78322;SDS011;67583;50.616;-3.404;2024-01-27T09:19:17;12.57;;;7.10;;
78322;SDS011;67583;50.616;-3.404;2024-01-27T09:24:08;13.83;;;8.37;;
78322;SDS011;67583;50.616;-3.404;2024-01-27T09:28:58;15.73;;;7.88;;
78322;SDS011;67583;50.616;-3.404;2024-01-27T09:33:50;15.75;;;8.98;;
78322;SDS011;67583;50.616;-3.404;2024-01-27T09:36:17;15.27;;;9.55;;
78322;SDS011;67583;50.616;-3.404;2024-01-27T09:41:08;18.60;;;8.80;;
78322;SDS011;67583;50.616;-3.404;2024-01-27T09:43:34;25.48;;;11.07;;
78322;SDS011;67583;50.616;-3.404;2024-01-27T09:48:27;17.02;;;8.48;;
78322;SDS011;67583;50.616;-3.404;2024-01-27T09:53:18;11.67;;;6.27;;
78322;SDS011;67583;50.616;-3.404;2024-01-27T09:58:09;8.40;;;4.10;;
78322;SDS011;67583;50.616;-3.404;2024-01-27T10:00:36;13.02;;;4.57;;
78322;SDS011;67583;50.616;-3.404;2024-01-27T10:05:27;11.10;;;5.05;;
78322;SDS011;67583;50.616;-3.404;2024-01-27T10:10:18;10.77;;;3.73;;
78322;SDS011;67583;50.616;-3.404;2024-01-27T10:15:27;14.53;;;4.07;;
78322;SDS011;67583;50.616;-3.404;2024-01-27T10:17:52;10.27;;;2.38;;
78322;SDS011;67583;50.616;-3.404;2024-01-27T10:20:18;13.63;;;2.22;;
78322;SDS011;67583;50.616;-3.404;2024-01-27T10:22:44;14.45;;;3.60;;
78322;SDS011;67583;50.616;-3.404;2024-01-27T10:25:10;11.13;;;3.40;;
78322;SDS011;67583;50.616;-3.404;2024-01-27T10:27:36;11.18;;;2.80;;
78322;SDS011;67583;50.616;-3.404;2024-01-27T10:30:02;7.30;;;2.50;;
78322;SDS011;67583;50.616;-3.404;2024-01-27T10:32:28;9.77;;;2.03;;
78322;SDS011;67583;50.616;-3.404;2024-01-27T10:35:04;11.43;;;3.25;;
78322;SDS011;67583;50.616;-3.404;2024-01-27T10:37:30;11.95;;;2.97;;
78322;SDS011;67583;50.616;-3.404;2024-01-27T10:40:02;10.82;;;3.08;;
78322;SDS011;67583;50.616;-3.404;2024-01-27T10:42:28;15.00;;;2.80;;
78322;SDS011;67583;50.616;-3.404;2024-01-27T10:44:57;14.38;;;3.50;;
78322;SDS011;67583;50.616;-3.404;2024-01-27T10:47:25;16.08;;;2.95;;
78322;SDS011;67583;50.616;-3.404;2024-01-27T10:49:52;27.70;;;3.88;;
78322;SDS011;67583;50.616;-3.404;2024-01-27T10:52:24;11.77;;;2.58;;
78322;SDS011;67583;50.616;-3.404;2024-01-27T10:54:55;17.80;;;4.07;;
78322;SDS011;67583;50.616;-3.404;2024-01-27T10:57:29;9.75;;;2.40;;
78322;SDS011;67583;50.616;-3.404;2024-01-27T10:59:55;13.50;;;2.78;;
78322;SDS011;67583;50.616;-3.404;2024-01-27T11:02:22;12.93;;;2.58;;
78322;SDS011;67583;50.616;-3.404;2024-01-27T11:04:48;10.07;;;2.33;;
78322;SDS011;67583;50.616;-3.404;2024-01-27T11:07:14;15.20;;;3.00;;
78322;SDS011;67583;50.616;-3.404;2024-01-27T11:09:42;19.08;;;3.90;;
78322;SDS011;67583;50.616;-3.404;2024-01-27T11:12:08;11.27;;;2.97;;
78322;SDS011;67583;50.616;-3.404;2024-01-27T11:14:34;11.63;;;2.58;;
78322;SDS011;67583;50.616;-3.404;2024-01-27T11:16:59;14.93;;;2.92;;
78322;SDS011;67583;50.616;-3.404;2024-01-27T11:19:25;14.25;;;3.33;;
78322;SDS011;67583;50.616;-3.404;2024-01-27T11:22:03;16.52;;;3.53;;
78322;SDS011;67583;50.616;-3.404;2024-01-27T11:24:28;9.85;;;2.47;;
78322;SDS011;67583;50.616;-3.404;2024-01-27T11:27:00;11.63;;;3.03;;
78322;SDS011;67583;50.616;-3.404;2024-01-27T11:29:27;18.55;;;3.78;;
78322;SDS011;67583;50.616;-3.404;2024-01-27T11:31:54;14.55;;;3.13;;
78322;SDS011;67583;50.616;-3.404;2024-01-27T11:34:21;12.45;;;3.60;;
78322;SDS011;67583;50.616;-3.404;2024-01-27T11:36:47;15.57;;;2.42;;
78322;SDS011;67583;50.616;-3.404;2024-01-27T11:39:31;13.13;;;2.85;;
78322;SDS011;67583;50.616;-3.404;2024-01-27T11:42:09;28.58;;;2.90;;
78322;SDS011;67583;50.616;-3.404;2024-01-27T11:44:38;13.85;;;2.58;;
78322;SDS011;67583;50.616;-3.404;2024-01-27T11:47:04;10.15;;;2.47;;
78322;SDS011;67583;50.616;-3.404;2024-01-27T11:49:30;9.10;;;2.30;;
78322;SDS011;67583;50.616;-3.404;2024-01-27T11:51:55;11.90;;;2.92;;
78322;SDS011;67583;50.616;-3.404;2024-01-27T11:54:21;8.65;;;3.10;;
78322;SDS011;67583;50.616;-3.404;2024-01-27T11:56:46;13.85;;;2.75;;
78322;SDS011;67583;50.616;-3.404;2024-01-27T11:59:11;13.45;;;2.65;;
78322;SDS011;67583;50.616;-3.404;2024-01-27T12:01:37;9.95;;;3.00;;
78322;SDS011;67583;50.616;-3.404;2024-01-27T12:04:06;13.95;;;3.17;;
78322;SDS011;67583;50.616;-3.404;2024-01-27T12:06:32;8.93;;;2.28;;
78322;SDS011;67583;50.616;-3.404;2024-01-27T12:08:58;16.60;;;3.15;;
78322;SDS011;67583;50.616;-3.404;2024-01-27T12:11:24;11.93;;;4.63;;
78322;SDS011;67583;50.616;-3.404;2024-01-27T12:13:50;11.57;;;2.08;;
78322;SDS011;67583;50.616;-3.404;2024-01-27T12:16:15;15.65;;;2.80;;
78322;SDS011;67583;50.616;-3.404;2024-01-27T12:18:41;11.68;;;3.40;;
78322;SDS011;67583;50.616;-3.404;2024-01-27T12:21:07;8.43;;;3.17;;
78322;SDS011;67583;50.616;-3.404;2024-01-27T12:23:33;15.27;;;3.30;;
78322;SDS011;67583;50.616;-3.404;2024-01-27T12:25:58;11.45;;;3.08;;
78322;SDS011;67583;50.616;-3.404;2024-01-27T12:28:24;18.60;;;3.70;;
78322;SDS011;67583;50.616;-3.404;2024-01-27T12:30:53;10.93;;;2.42;;
78322;SDS011;67583;50.616;-3.404;2024-01-27T12:33:18;11.25;;;3.30;;
78322;SDS011;67583;50.616;-3.404;2024-01-27T12:35:45;10.68;;;2.20;;
78322;SDS011;67583;50.616;-3.404;2024-01-27T12:38:11;18.00;;;4.20;;
78322;SDS011;67583;50.616;-3.404;2024-01-27T12:40:37;10.88;;;2.88;;
78322;SDS011;67583;50.616;-3.404;2024-01-27T12:43:03;9.85;;;2.53;;
78322;SDS011;67583;50.616;-3.404;2024-01-27T12:45:28;18.52;;;5.03;;
78322;SDS011;67583;50.616;-3.404;2024-01-27T12:47:54;15.60;;;3.88;;
78322;SDS011;67583;50.616;-3.404;2024-01-27T12:50:19;10.88;;;3.95;;
78322;SDS011;67583;50.616;-3.404;2024-01-27T12:52:45;10.30;;;2.63;;
78322;SDS011;67583;50.616;-3.404;2024-01-27T12:55:10;10.77;;;3.05;;
78322;SDS011;67583;50.616;-3.404;2024-01-27T12:57:35;12.65;;;2.88;;
78322;SDS011;67583;50.616;-3.404;2024-01-27T13:00:01;16.05;;;4.03;;
78322;SDS011;67583;50.616;-3.404;2024-01-27T13:02:29;14.68;;;2.70;;
78322;SDS011;67583;50.616;-3.404;2024-01-27T13:04:54;15.93;;;2.78;;
78322;SDS011;67583;50.616;-3.404;2024-01-27T13:07:20;15.57;;;3.22;;
78322;SDS011;67583;50.616;-3.404;2024-01-27T13:09:45;15.40;;;3.25;;
78322;SDS011;67583;50.616;-3.404;2024-01-27T13:12:11;10.70;;;2.70;;
78322;SDS011;67583;50.616;-3.404;2024-01-27T13:14:36;14.95;;;3.45;;
78322;SDS011;67583;50.616;-3.404;2024-01-27T13:17:01;18.30;;;3.63;;
78322;SDS011;67583;50.616;-3.404;2024-01-27T13:19:27;11.38;;;3.05;;
78322;SDS011;67583;50.616;-3.404;2024-01-27T13:21:52;10.48;;;3.05;;
78322;SDS011;67583;50.616;-3.404;2024-01-27T13:24:18;13.70;;;3.58;;
78322;SDS011;67583;50.616;-3.404;2024-01-27T13:26:45;10.88;;;3.42;;
78322;SDS011;67583;50.616;-3.404;2024-01-27T13:29:11;21.15;;;3.33;;
78322;SDS011;67583;50.616;-3.404;2024-01-27T13:31:37;13.27;;;2.63;;
78322;SDS011;67583;50.616;-3.404;2024-01-27T13:34:02;15.75;;;3.55;;
78322;SDS011;67583;50.616;-3.404;2024-01-27T13:36:28;16.40;;;3.20;;
78322;SDS011;67583;50.616;-3.404;2024-01-27T13:38:53;12.18;;;3.53;;
78322;SDS011;67583;50.616;-3.404;2024-01-27T13:41:18;17.85;;;3.70;;
78322;SDS011;67583;50.616;-3.404;2024-01-27T13:43:44;12.02;;;2.58;;
78322;SDS011;67583;50.616;-3.404;2024-01-27T13:46:10;9.57;;;2.63;;
78322;SDS011;67583;50.616;-3.404;2024-01-27T13:48:35;16.45;;;3.15;;
78322;SDS011;67583;50.616;-3.404;2024-01-27T13:51:02;12.27;;;2.53;;
78322;SDS011;67583;50.616;-3.404;2024-01-27T13:53:28;16.08;;;2.70;;
78322;SDS011;67583;50.616;-3.404;2024-01-27T13:55:54;13.98;;;2.47;;
78322;SDS011;67583;50.616;-3.404;2024-01-27T13:58:19;10.85;;;3.13;;
78322;SDS011;67583;50.616;-3.404;2024-01-27T14:00:45;11.02;;;2.70;;
78322;SDS011;67583;50.616;-3.404;2024-01-27T14:03:10;11.57;;;3.13;;
78322;SDS011;67583;50.616;-3.404;2024-01-27T14:05:36;12.60;;;2.85;;
78322;SDS011;67583;50.616;-3.404;2024-01-27T14:08:03;17.10;;;2.83;;
78322;SDS011;67583;50.616;-3.404;2024-01-27T14:10:29;8.32;;;2.95;;
78322;SDS011;67583;50.616;-3.404;2024-01-27T14:12:55;10.25;;;2.63;;
78322;SDS011;67583;50.616;-3.404;2024-01-27T14:15:20;10.05;;;2.63;;
78322;SDS011;67583;50.616;-3.404;2024-01-27T14:17:45;10.65;;;2.30;;
78322;SDS011;67583;50.616;-3.404;2024-01-27T14:20:11;15.75;;;3.17;;
78322;SDS011;67583;50.616;-3.404;2024-01-27T14:22:37;16.65;;;3.67;;
78322;SDS011;67583;50.616;-3.404;2024-01-27T14:25:02;13.40;;;2.65;;
78322;SDS011;67583;50.616;-3.404;2024-01-27T14:27:29;16.83;;;3.80;;
78322;SDS011;67583;50.616;-3.404;2024-01-27T14:29:54;11.02;;;2.45;;
78322;SDS011;67583;50.616;-3.404;2024-01-27T14:32:20;13.63;;;2.80;;
78322;SDS011;67583;50.616;-3.404;2024-01-27T14:34:46;12.60;;;2.53;;
78322;SDS011;67583;50.616;-3.404;2024-01-27T14:37:12;15.80;;;2.72;;
78322;SDS011;67583;50.616;-3.404;2024-01-27T14:39:38;8.15;;;2.25;;
78322;SDS011;67583;50.616;-3.404;2024-01-27T14:42:07;12.93;;;2.95;;
78322;SDS011;67583;50.616;-3.404;2024-01-27T14:44:33;17.95;;;3.08;;
78322;SDS011;67583;50.616;-3.404;2024-01-27T14:46:58;13.27;;;2.47;;
78322;SDS011;67583;50.616;-3.404;2024-01-27T14:49:24;14.27;;;3.17;;
78322;SDS011;67583;50.616;-3.404;2024-01-27T14:51:49;15.15;;;2.88;;
78322;SDS011;67583;50.616;-3.404;2024-01-27T14:54:15;15.35;;;2.67;;
78322;SDS011;67583;50.616;-3.404;2024-01-27T14:56:40;9.15;;;2.20;;
78322;SDS011;67583;50.616;-3.404;2024-01-27T14:59:06;16.63;;;2.75;;
78322;SDS011;67583;50.616;-3.404;2024-01-27T15:01:32;21.10;;;3.92;;
78322;SDS011;67583;50.616;-3.404;2024-01-27T15:03:58;14.65;;;3.40;;
78322;SDS011;67583;50.616;-3.404;2024-01-27T15:06:25;6.93;;;2.60;;
78322;SDS011;67583;50.616;-3.404;2024-01-27T15:08:51;16.30;;;2.70;;
78322;SDS011;67583;50.616;-3.404;2024-01-27T15:11:18;16.35;;;3.15;;
78322;SDS011;67583;50.616;-3.404;2024-01-27T15:13:44;13.48;;;3.67;;